Time;durP1;ratioP1;P1;durP2;ratioP2;P2;SDS_P1;SDS_P2;PMS_P1;PMS_P2;Temp;Humidity;BMP_temperature;BMP_pressure;BME280_temperature;BME280_humidity;BME280_pressure;Samples;Min_cycle;Max_cycle;Signal;HPM_P1;HPM_P2
2022/07/08 00:00:14;;;;;;;4.00;3.60;;;18.20;99.90;;;;;;4970673;28;20412;-66
2022/07/08 00:02:40;;;;;;;4.70;3.77;;;18.20;99.90;;;;;;4970644;28;20202;-68
2022/07/08 00:05:07;;;;;;;4.00;3.70;;;18.30;99.90;;;;;;4970611;28;20413;-66
2022/07/08 00:07:33;;;;;;;4.30;3.30;;;18.30;99.90;;;;;;4970599;28;20574;-68
2022/07/08 00:09:58;;;;;;;7.17;3.50;;;18.30;99.90;;;;;;4970598;28;20981;-67
2022/07/08 00:12:24;;;;;;;15.27;4.37;;;18.30;99.90;;;;;;4970464;28;20293;-67
2022/07/08 00:14:50;;;;;;;13.87;4.33;;;18.30;99.90;;;;;;4970722;28;20599;-68
2022/07/08 00:17:15;;;;;;;4.17;3.77;;;18.30;99.90;;;;;;4970272;28;20189;-67
2022/07/08 00:19:41;;;;;;;6.00;3.40;;;18.20;99.90;;;;;;4970217;28;20173;-67
2022/07/08 00:22:07;;;;;;;3.40;3.10;;;18.20;99.90;;;;;;4970105;28;20208;-68
2022/07/08 00:24:32;;;;;;;3.30;2.83;;;18.20;99.90;;;;;;4970775;28;20165;-67
2022/07/08 00:26:58;;;;;;;5.20;3.13;;;18.20;99.90;;;;;;4970219;28;20500;-67
2022/07/08 00:29:24;;;;;;;3.57;3.27;;;18.10;99.90;;;;;;4970283;28;20169;-67
2022/07/08 00:31:50;;;;;;;5.17;2.93;;;18.10;99.90;;;;;;4971829;28;20205;-68
2022/07/08 00:34:15;;;;;;;3.47;3.13;;;18.00;99.90;;;;;;4970862;28;20185;-68
2022/07/08 00:36:41;;;;;;;8.00;3.43;;;18.10;99.90;;;;;;4969457;28;20205;-67
2022/07/08 00:39:07;;;;;;;8.40;3.70;;;18.10;99.90;;;;;;4972270;28;20264;-67
2022/07/08 00:41:33;;;;;;;8.23;3.47;;;18.10;99.90;;;;;;4989299;28;20223;-67
2022/07/08 00:43:59;;;;;;;4.57;3.00;;;18.20;99.90;;;;;;4970877;28;20185;-67
2022/07/08 00:46:25;;;;;;;6.60;3.47;;;18.10;99.90;;;;;;4970958;28;20425;-67
2022/07/08 00:48:51;;;;;;;3.80;2.77;;;18.10;99.90;;;;;;4968691;28;20587;-67
2022/07/08 00:51:18;;;;;;;3.80;2.73;;;18.10;99.90;;;;;;4970444;28;20409;-66
2022/07/08 00:53:52;;;;;;;4.13;3.27;;;18.10;99.90;;;;;;4971262;28;20170;-68
2022/07/08 00:56:20;;;;;;;5.23;3.23;;;18.00;99.90;;;;;;4976404;28;20741;-69
2022/07/08 00:58:46;;;;;;;4.60;2.93;;;18.10;99.90;;;;;;4979443;28;20413;-68
2022/07/08 01:01:12;;;;;;;3.27;2.97;;;18.10;99.90;;;;;;4979518;28;20464;-69
2022/07/08 01:03:38;;;;;;;3.40;3.10;;;18.10;99.90;;;;;;4977220;28;20401;-67
2022/07/08 01:06:04;;;;;;;5.10;3.10;;;18.10;99.90;;;;;;4970246;28;20534;-67
2022/07/08 01:08:30;;;;;;;8.73;3.30;;;18.20;99.90;;;;;;4969516;28;20405;-67
2022/07/08 01:10:56;;;;;;;3.97;2.63;;;18.20;99.90;;;;;;4969610;28;20708;-67
2022/07/08 01:13:24;;;;;;;4.30;3.20;;;18.20;99.90;;;;;;4969857;28;20413;-67
2022/07/08 01:15:49;;;;;;;6.17;2.50;;;18.10;99.90;;;;;;4969978;28;20185;-68
2022/07/08 01:18:27;;;;;;;3.97;2.77;;;18.10;99.90;;;;;;4969002;28;21078;-68
2022/07/08 01:20:53;;;;;;;9.70;3.00;;;18.10;99.90;;;;;;4970106;28;20180;-67
2022/07/08 01:23:19;;;;;;;4.93;2.90;;;18.00;99.90;;;;;;4969919;28;20488;-69
2022/07/08 01:25:46;;;;;;;34.87;4.00;;;18.00;99.90;;;;;;4969572;28;20437;-68
2022/07/08 01:28:13;;;;;;;7.93;3.43;;;18.00;99.90;;;;;;4968841;28;20555;-67
2022/07/08 01:30:40;;;;;;;5.20;3.10;;;18.00;99.90;;;;;;4969908;28;20398;-68
2022/07/08 01:33:06;;;;;;;10.23;3.70;;;17.90;99.90;;;;;;4970037;28;20420;-67
2022/07/08 01:35:31;;;;;;;10.30;3.40;;;17.80;99.90;;;;;;4969654;28;20475;-67
2022/07/08 01:37:57;;;;;;;6.93;2.47;;;17.80;99.90;;;;;;4969882;28;20209;-67
2022/07/08 01:40:23;;;;;;;4.80;2.83;;;17.80;99.90;;;;;;4981739;28;20179;-67
2022/07/08 01:42:48;;;;;;;4.10;3.20;;;17.90;99.90;;;;;;4975272;28;20249;-67
2022/07/08 01:45:14;;;;;;;6.17;3.07;;;17.80;99.90;;;;;;4951405;28;20225;-67
2022/07/08 01:47:40;;;;;;;6.70;4.20;;;17.80;99.90;;;;;;4951534;28;20244;-69
2022/07/08 01:50:06;;;;;;;3.73;2.97;;;17.80;99.90;;;;;;4950785;28;20180;-68
2022/07/08 01:52:32;;;;;;;5.00;3.20;;;17.80;99.90;;;;;;4956455;28;20230;-69
2022/07/08 01:54:58;;;;;;;4.77;3.03;;;17.80;99.90;;;;;;4962061;28;20453;-69
2022/07/08 01:57:23;;;;;;;5.70;3.40;;;17.90;99.90;;;;;;4977024;28;20424;-67
2022/07/08 01:59:50;;;;;;;7.77;3.47;;;17.80;99.90;;;;;;4977119;28;20174;-68
2022/07/08 02:02:21;;;;;;;5.27;3.67;;;17.70;99.90;;;;;;4979033;28;20201;-67
2022/07/08 02:04:47;;;;;;;6.00;3.90;;;17.70;99.90;;;;;;4978942;28;20417;-68
2022/07/08 02:07:13;;;;;;;4.30;3.80;;;17.60;99.90;;;;;;4977670;28;20600;-67
2022/07/08 02:09:40;;;;;;;4.17;3.10;;;17.60;99.90;;;;;;4973626;28;20236;-68
2022/07/08 02:12:20;;;;;;;4.13;3.73;;;17.50;99.90;;;;;;4972689;28;20419;-68
2022/07/08 02:14:46;;;;;;;6.53;3.77;;;17.50;99.90;;;;;;4973203;28;20405;-67
2022/07/08 02:17:13;;;;;;;4.30;3.40;;;17.40;99.90;;;;;;4972941;28;20441;-68
2022/07/08 02:19:39;;;;;;;4.53;3.73;;;17.40;99.90;;;;;;4972155;28;20413;-67
2022/07/08 02:22:05;;;;;;;5.93;4.03;;;17.30;99.90;;;;;;4973264;28;20543;-68
2022/07/08 02:24:30;;;;;;;5.40;4.10;;;17.30;99.90;;;;;;4972959;28;20405;-69
2022/07/08 02:26:56;;;;;;;6.20;4.10;;;17.20;99.90;;;;;;4972186;28;20788;-68
2022/07/08 02:29:22;;;;;;;9.63;4.77;;;17.00;99.90;;;;;;4972210;28;20177;-68
2022/07/08 02:31:48;;;;;;;5.10;3.83;;;17.10;99.90;;;;;;4972839;28;20648;-68
2022/07/08 02:34:13;;;;;;;5.53;3.83;;;17.10;99.90;;;;;;4972760;28;20208;-67
2022/07/08 02:36:39;;;;;;;5.67;3.63;;;17.10;99.90;;;;;;4973059;28;20232;-68
2022/07/08 02:39:05;;;;;;;3.80;3.50;;;17.10;99.90;;;;;;4974038;28;20549;-68
2022/07/08 02:41:31;;;;;;;4.33;3.60;;;16.60;99.90;;;;;;4991314;28;20205;-67
2022/07/08 02:43:57;;;;;;;4.33;2.70;;;16.50;1.00;;;;;;4973028;28;21084;-68
2022/07/08 02:46:23;;;;;;;3.80;3.03;;;16.30;99.90;;;;;;4972470;28;20425;-68
2022/07/08 02:48:49;;;;;;;6.33;3.43;;;16.10;99.90;;;;;;4971512;28;20208;-68
2022/07/08 02:51:15;;;;;;;4.70;2.30;;;16.00;99.90;;;;;;4972803;28;20174;-67
2022/07/08 02:53:40;;;;;;;4.50;2.30;;;16.10;99.90;;;;;;4972486;28;20364;-67
2022/07/08 02:56:06;;;;;;;6.33;3.00;;;16.00;99.90;;;;;;4972193;28;20228;-68
2022/07/08 02:58:32;;;;;;;7.43;2.47;;;15.70;99.90;;;;;;4971227;28;21004;-67
2022/07/08 03:00:58;;;;;;;6.33;2.30;;;15.60;99.90;;;;;;4972762;28;20277;-68
2022/07/08 03:03:24;;;;;;;5.23;2.40;;;15.80;99.90;;;;;;4971804;28;20519;-69
2022/07/08 03:05:50;;;;;;;5.80;2.53;;;15.70;99.90;;;;;;4972175;28;20401;-67
2022/07/08 03:08:15;;;;;;;7.47;2.60;;;15.70;99.90;;;;;;4971635;28;20189;-67
2022/07/08 03:10:41;;;;;;;5.90;2.33;;;15.70;99.90;;;;;;4972021;28;20177;-67
2022/07/08 03:13:07;;;;;;;7.17;2.20;;;15.80;99.90;;;;;;4972163;28;20173;-67
2022/07/08 03:15:33;;;;;;;9.87;2.57;;;15.80;99.90;;;;;;4972376;28;20166;-68
2022/07/08 03:17:59;;;;;;;7.47;3.73;;;15.70;99.90;;;;;;4971563;28;20201;-67
2022/07/08 03:20:24;;;;;;;3.70;2.53;;;15.60;99.90;;;;;;4971782;28;20601;-68
2022/07/08 03:22:50;;;;;;;6.40;2.77;;;15.60;99.90;;;;;;4972614;28;20194;-68
2022/07/08 03:25:16;;;;;;;5.97;2.27;;;15.50;99.90;;;;;;4971679;28;20174;-68
2022/07/08 03:27:42;;;;;;;3.70;2.30;;;15.40;99.90;;;;;;4971161;28;20276;-67
2022/07/08 03:30:08;;;;;;;3.90;2.10;;;15.50;99.90;;;;;;4971904;28;20543;-67
2022/07/08 03:32:34;;;;;;;5.20;2.60;;;15.40;99.90;;;;;;4972187;28;20212;-67
2022/07/08 03:35:00;;;;;;;6.70;2.73;;;15.40;99.90;;;;;;4971707;28;20841;-66
2022/07/08 03:37:25;;;;;;;5.37;2.40;;;15.50;99.90;;;;;;4991471;23;20220;-70
2022/07/08 03:39:53;;;;;;;8.23;3.10;;;15.50;99.90;;;;;;4985195;28;20421;-69
2022/07/08 03:42:19;;;;;;;5.17;2.17;;;15.70;99.90;;;;;;4980385;28;20268;-70
2022/07/08 03:44:46;;;;;;;6.47;2.63;;;15.90;99.90;;;;;;4979503;28;20456;-68
2022/07/08 03:47:12;;;;;;;7.07;2.30;;;15.80;99.90;;;;;;4984735;28;20468;-72
2022/07/08 03:49:38;;;;;;;6.03;2.37;;;15.60;99.90;;;;;;4985709;28;20424;-68
2022/07/08 03:52:05;;;;;;;5.10;2.63;;;15.30;99.90;;;;;;4987776;28;20441;-67
2022/07/08 03:54:31;;;;;;;5.60;2.10;;;15.00;99.90;;;;;;4972653;28;20949;-66
2022/07/08 03:56:57;;;;;;;3.10;2.53;;;14.90;99.90;;;;;;4972086;28;20464;-67
2022/07/08 03:59:22;;;;;;;4.60;2.53;;;15.20;99.90;;;;;;4971475;28;20228;-68
2022/07/08 04:01:48;;;;;;;3.60;2.43;;;15.10;99.90;;;;;;4972650;28;20256;-68
2022/07/08 04:04:14;;;;;;;13.57;3.37;;;15.20;99.90;;;;;;4972452;28;20166;-68
2022/07/08 04:06:40;;;;;;;15.90;2.50;;;15.20;99.90;;;;;;4972410;28;20194;-68
2022/07/08 04:09:05;;;;;;;7.23;2.50;;;15.50;99.90;;;;;;4971510;28;20165;-69
2022/07/08 04:11:31;;;;;;;4.93;2.10;;;15.60;99.90;;;;;;4971864;28;20207;-66
2022/07/08 04:13:57;;;;;;;5.63;2.50;;;15.70;99.90;;;;;;4972083;28;20177;-65
2022/07/08 04:16:23;;;;;;;5.13;2.60;;;15.90;99.90;;;;;;4970545;28;20594;-69
2022/07/08 04:18:49;;;;;;;6.93;2.57;;;16.10;99.90;;;;;;4969995;28;20185;-66
2022/07/08 04:21:15;;;;;;;7.83;3.07;;;16.30;99.90;;;;;;5003433;28;20544;-66
2022/07/08 04:23:41;;;;;;;20.67;3.40;;;16.30;99.90;;;;;;4971958;28;20634;-68
2022/07/08 04:26:07;;;;;;;4.53;2.43;;;16.40;99.90;;;;;;4966919;28;20189;-69
2022/07/08 04:28:35;;;;;;;12.60;3.03;;;16.20;99.90;;;;;;4968918;28;20281;-67
2022/07/08 04:31:01;;;;;;;8.50;2.80;;;16.10;99.90;;;;;;4971558;28;20417;-67
2022/07/08 04:33:27;;;;;;;3.27;2.07;;;16.20;99.90;;;;;;4965685;28;20468;-68
2022/07/08 04:35:53;;;;;;;13.60;3.37;;;16.00;99.90;;;;;;4952275;28;20178;-68
2022/07/08 04:38:18;;;;;;;8.43;2.77;;;16.20;99.90;;;;;;4950495;28;20214;-67
2022/07/08 04:40:44;;;;;;;9.50;2.77;;;16.10;99.90;;;;;;4950306;28;20650;-66
2022/07/08 04:43:12;;;;;;;36.90;5.07;;;16.10;99.90;;;;;;4949540;28;20182;-70
2022/07/08 04:45:38;;;;;;;9.80;3.70;;;16.00;99.90;;;;;;4949600;28;20190;-68
2022/07/08 04:48:04;;;;;;;17.27;3.50;;;15.90;99.90;;;;;;4949818;28;21139;-66
2022/07/08 04:50:31;;;;;;;4.77;2.50;;;16.10;99.90;;;;;;4949337;28;20440;-66
2022/07/08 04:52:57;;;;;;;5.50;2.80;;;16.00;99.90;;;;;;4948776;28;20210;-68
2022/07/08 04:55:28;;;;;;;7.63;3.30;;;15.90;99.90;;;;;;4946841;29;20442;-68
2022/07/08 04:58:02;;;;;;;8.50;3.50;;;16.10;99.90;;;;;;4948542;28;20293;-67
2022/07/08 05:00:28;;;;;;;6.40;2.67;;;16.30;99.90;;;;;;4951876;28;20425;-70
2022/07/08 05:02:54;;;;;;;9.53;2.90;;;15.90;99.90;;;;;;4947186;28;21158;-68
2022/07/08 05:05:20;;;;;;;7.57;3.40;;;15.70;99.90;;;;;;4948565;28;20426;-67
2022/07/08 05:07:47;;;;;;;6.50;3.13;;;16.00;99.90;;;;;;4948931;28;20194;-68
2022/07/08 05:10:17;;;;;;;3.80;2.17;;;16.20;99.90;;;;;;4947932;28;20422;-69
2022/07/08 05:12:43;;;;;;;8.43;3.00;;;16.30;99.90;;;;;;4949344;28;20418;-70
2022/07/08 05:15:10;;;;;;;4.67;2.30;;;16.10;99.90;;;;;;4949015;28;20815;-70
2022/07/08 05:17:36;;;;;;;4.93;2.20;;;16.10;99.90;;;;;;4948580;28;20453;-69
2022/07/08 05:20:02;;;;;;;7.73;3.40;;;16.00;99.90;;;;;;4948706;28;20433;-68
2022/07/08 05:22:27;;;;;;;7.40;2.47;;;15.90;99.90;;;;;;4948480;28;20291;-67
2022/07/08 05:24:53;;;;;;;6.17;3.00;;;15.90;99.90;;;;;;4948687;28;20175;-68
2022/07/08 05:27:20;;;;;;;9.40;2.80;;;16.00;99.90;;;;;;4947897;28;20281;-70
2022/07/08 05:29:46;;;;;;;6.43;2.63;;;16.50;99.90;;;;;;4948947;28;20174;-69
2022/07/08 05:32:12;;;;;;;10.23;3.50;;;16.80;99.90;;;;;;4948786;28;20520;-70
2022/07/08 05:34:41;;;;;;;8.13;2.90;;;17.30;99.90;;;;;;4948759;28;20781;-71
2022/07/08 05:37:07;;;;;;;10.27;3.50;;;17.30;99.90;;;;;;4948926;28;20233;-68
2022/07/08 05:39:33;;;;;;;8.53;2.43;;;17.90;99.90;;;;;;4948706;28;20481;-69
2022/07/08 05:41:59;;;;;;;7.50;2.30;;;18.30;99.90;;;;;;4960119;28;21391;-69
2022/07/08 05:44:25;;;;;;;6.77;2.60;;;18.50;99.90;;;;;;4947690;28;20422;-67
2022/07/08 05:46:51;;;;;;;3.87;2.00;;;18.50;99.90;;;;;;4948270;28;20194;-70
2022/07/08 05:49:16;;;;;;;4.47;2.23;;;18.70;99.90;;;;;;4938945;28;20206;-68
2022/07/08 05:51:42;;;;;;;6.20;2.13;;;19.00;99.90;;;;;;4940133;28;20961;-70
2022/07/08 05:54:07;;;;;;;8.27;2.47;;;18.60;99.90;;;;;;4938167;29;20185;-69
2022/07/08 05:56:33;;;;;;;5.53;2.33;;;18.40;99.90;;;;;;4951305;29;23065;-69
2022/07/08 05:58:59;;;;;;;9.67;2.53;;;17.90;99.90;;;;;;4952568;28;20186;-69
2022/07/08 06:01:25;;;;;;;5.80;2.93;;;18.10;99.90;;;;;;4950735;28;20790;-69
2022/07/08 06:03:50;;;;;;;7.00;2.60;;;18.50;99.90;;;;;;4949874;28;20526;-68
2022/07/08 06:06:16;;;;;;;5.20;2.50;;;18.10;99.90;;;;;;4951181;28;20527;-67
2022/07/08 06:08:42;;;;;;;12.53;3.30;;;17.40;99.90;;;;;;4948249;28;20174;-65
2022/07/08 06:11:08;;;;;;;13.60;2.87;;;17.70;99.90;;;;;;4948610;28;20253;-64
2022/07/08 06:13:33;;;;;;;24.27;3.90;;;18.10;99.90;;;;;;4947443;28;20180;-67
2022/07/08 06:15:59;;;;;;;6.00;2.40;;;18.40;99.90;;;;;;4947983;28;21020;-67
2022/07/08 06:18:25;;;;;;;15.13;4.37;;;18.20;99.90;;;;;;4947022;28;20603;-68
2022/07/08 06:20:51;;;;;;;30.80;5.50;;;18.10;99.90;;;;;;4948834;28;20204;-69
2022/07/08 06:23:17;;;;;;;4.70;2.00;;;18.50;99.90;;;;;;4944556;28;21545;-69
2022/07/08 06:25:43;;;;;;;7.60;2.37;;;19.10;99.90;;;;;;4948353;28;20635;-68
2022/07/08 06:28:08;;;;;;;14.33;3.23;;;18.90;99.90;;;;;;4947683;28;20213;-68
2022/07/08 06:30:34;;;;;;;3.43;2.23;;;19.10;99.90;;;;;;4951489;28;20194;-69
2022/07/08 06:33:00;;;;;;;10.80;2.90;;;19.10;99.90;;;;;;4950296;28;20233;-69
2022/07/08 06:35:27;;;;;;;6.83;2.30;;;18.60;99.90;;;;;;4950496;28;20712;-68
2022/07/08 06:37:53;;;;;;;4.80;1.90;;;18.80;99.90;;;;;;4973195;28;20229;-68
2022/07/08 06:40:22;;;;;;;4.30;2.00;;;18.40;99.90;;;;;;4946952;28;20444;-69
2022/07/08 06:42:49;;;;;;;10.00;2.37;;;18.20;99.90;;;;;;4951744;29;20537;-67
2022/07/08 06:45:15;;;;;;;3.70;1.80;;;18.10;99.90;;;;;;4957034;28;20503;-68
2022/07/08 06:47:41;;;;;;;6.00;2.37;;;18.40;99.90;;;;;;4946213;28;20998;-67
2022/07/08 06:50:08;;;;;;;7.13;2.47;;;18.80;99.90;;;;;;4955653;28;20424;-68
2022/07/08 06:52:35;;;;;;;5.57;1.80;;;18.70;99.90;;;;;;4970024;28;20247;-68
2022/07/08 06:55:01;;;;;;;11.27;2.90;;;19.20;99.90;;;;;;4970278;28;20891;-68
2022/07/08 06:57:27;;;;;;;26.20;3.83;;;19.40;99.90;;;;;;4956804;28;20482;-66
2022/07/08 06:59:53;;;;;;;13.83;3.80;;;19.50;99.90;;;;;;4970197;28;20423;-67
2022/07/08 07:02:19;;;;;;;6.63;2.53;;;19.60;99.90;;;;;;4959389;28;20560;-67
2022/07/08 07:04:45;;;;;;;31.87;5.30;;;19.60;99.90;;;;;;4954517;28;20174;-68
2022/07/08 07:07:10;;;;;;;11.97;2.70;;;19.70;99.90;;;;;;4955166;28;20453;-69
2022/07/08 07:09:36;;;;;;;18.53;2.70;;;19.80;99.90;;;;;;4956135;28;20263;-69
2022/07/08 07:12:03;;;;;;;3.37;2.00;;;19.90;99.90;;;;;;4956574;28;20182;-69
2022/07/08 07:14:29;;;;;;;5.83;1.87;;;19.80;99.90;;;;;;4952693;28;20193;-69
2022/07/08 07:16:55;;;;;;;17.13;3.83;;;19.60;99.90;;;;;;4954015;28;20434;-68
2022/07/08 07:19:20;;;;;;;5.33;2.13;;;19.00;99.90;;;;;;4953366;28;20174;-69
2022/07/08 07:21:46;;;;;;;5.40;2.93;;;18.80;99.90;;;;;;4954811;28;20342;-67
2022/07/08 07:24:12;;;;;;;17.77;2.60;;;18.50;99.90;;;;;;4960601;28;20171;-68
2022/07/08 07:26:37;;;;;;;7.37;2.33;;;18.30;99.90;;;;;;4959175;28;20397;-68
2022/07/08 07:29:04;;;;;;;34.00;4.43;;;18.50;99.90;;;;;;4958394;28;20194;-69
2022/07/08 07:31:30;;;;;;;11.83;3.50;;;18.80;99.90;;;;;;4959764;28;20197;-69
2022/07/08 07:33:55;;;;;;;22.83;3.30;;;19.10;99.90;;;;;;4960480;28;20504;-68
2022/07/08 07:36:21;;;;;;;31.13;4.40;;;19.10;99.90;;;;;;4963358;28;20178;-69
2022/07/08 07:38:47;;;;;;;20.70;3.30;;;19.20;99.90;;;;;;4962311;28;20267;-69
2022/07/08 07:41:13;;;;;;;10.50;3.07;;;19.30;99.90;;;;;;4962755;28;20206;-70
2022/07/08 07:43:39;;;;;;;9.63;2.73;;;19.50;99.90;;;;;;4953586;28;20584;-67
2022/07/08 07:46:05;;;;;;;25.60;5.70;;;19.50;99.90;;;;;;4954020;28;20438;-67
2022/07/08 07:48:31;;;;;;;10.03;2.93;;;19.80;99.90;;;;;;4952628;28;20258;-69
2022/07/08 07:50:56;;;;;;;9.33;2.70;;;20.10;99.90;;;;;;4953233;28;20198;-66
2022/07/08 07:53:23;;;;;;;20.60;4.77;;;19.90;99.90;;;;;;4953850;28;20167;-67
2022/07/08 07:55:49;;;;;;;5.33;2.33;;;20.00;99.90;;;;;;4953190;28;20197;-68
2022/07/08 07:58:15;;;;;;;8.73;2.77;;;19.90;99.90;;;;;;4955774;28;20429;-68
2022/07/08 08:00:40;;;;;;;19.43;3.97;;;19.90;99.90;;;;;;4972672;28;20632;-69
2022/07/08 08:03:06;;;;;;;7.80;3.63;;;19.80;99.90;;;;;;4976025;28;20206;-66
2022/07/08 08:05:32;;;;;;;6.77;2.40;;;19.80;99.90;;;;;;4974326;28;20170;-69
2022/07/08 08:07:59;;;;;;;17.83;3.23;;;19.70;99.90;;;;;;4975255;28;20508;-67
2022/07/08 08:10:25;;;;;;;7.67;2.60;;;19.80;99.90;;;;;;4978673;28;20166;-67
2022/07/08 08:12:50;;;;;;;16.23;4.20;;;19.80;99.90;;;;;;4977569;28;20478;-68
2022/07/08 08:15:16;;;;;;;17.63;4.37;;;19.70;99.90;;;;;;4977129;28;20657;-68
2022/07/08 08:17:42;;;;;;;7.83;3.50;;;19.90;99.90;;;;;;4977346;28;20323;-68
2022/07/08 08:20:11;;;;;;;123.17;14.13;;;20.20;99.90;;;;;;4973099;28;20174;-70
2022/07/08 08:22:37;;;;;;;35.67;5.10;;;20.20;99.10;;;;;;4973745;28;20456;-67
2022/07/08 08:25:03;;;;;;;12.33;3.70;;;20.00;98.20;;;;;;4965776;28;20758;-67
2022/07/08 08:27:29;;;;;;;97.47;10.67;;;20.10;99.90;;;;;;4953013;28;20445;-67
2022/07/08 08:29:55;;;;;;;19.00;5.57;;;20.00;98.10;;;;;;4954916;28;20418;-68
2022/07/08 08:32:22;;;;;;;73.03;10.70;;;20.20;97.20;;;;;;4954581;28;20182;-67
2022/07/08 08:34:47;;;;;;;132.53;14.80;;;20.10;96.80;;;;;;4956194;28;20477;-67
2022/07/08 08:37:14;;;;;;;43.07;8.50;;;20.10;96.20;;;;;;4955759;28;20454;-67
2022/07/08 08:39:40;;;;;;;16.30;3.60;;;20.10;96.40;;;;;;4957535;28;20174;-67
2022/07/08 08:42:07;;;;;;;18.43;4.10;;;20.10;96.50;;;;;;4953716;28;20654;-70
2022/07/08 08:44:33;;;;;;;13.83;3.20;;;20.30;96.00;;;;;;4955539;28;20417;-66
2022/07/08 08:47:03;;;;;;;15.20;4.30;;;20.40;95.50;;;;;;4953905;28;20454;-66
2022/07/08 08:49:35;;;;;;;9.13;4.13;;;20.70;95.30;;;;;;4954060;28;20406;-66
2022/07/08 08:52:03;;;;;;;10.27;2.90;;;20.70;94.70;;;;;;4954818;28;20405;-71
2022/07/08 08:54:33;;;;;;;11.73;3.53;;;20.70;93.90;;;;;;4953709;28;20441;-70
2022/07/08 08:57:00;;;;;;;22.77;4.53;;;20.60;94.50;;;;;;4953897;28;20477;-67
2022/07/08 08:59:27;;;;;;;28.90;6.47;;;20.80;93.90;;;;;;4966440;28;20417;-68
2022/07/08 09:01:54;;;;;;;14.10;4.73;;;20.80;93.20;;;;;;4972509;28;20453;-66
2022/07/08 09:04:21;;;;;;;5.00;3.33;;;20.80;92.10;;;;;;4973111;28;20417;-66
2022/07/08 09:06:47;;;;;;;11.50;2.63;;;21.30;92.80;;;;;;4973232;28;20429;-70
2022/07/08 09:09:12;;;;;;;7.87;3.60;;;21.70;92.00;;;;;;4973094;28;20436;-68
2022/07/08 09:11:39;;;;;;;5.40;2.50;;;22.20;92.40;;;;;;4972926;28;20211;-66
2022/07/08 09:14:22;;;;;;;14.47;4.43;;;22.20;89.40;;;;;;4972900;28;20173;-69
2022/07/08 09:17:26;;;;;;;23.13;4.03;;;22.00;88.20;;;;;;4973191;28;20519;-67
2022/07/08 09:19:52;;;;;;;141.90;16.33;;;21.50;82.80;;;;;;4969912;28;20440;-67
2022/07/08 09:22:22;;;;;;;11.20;4.47;;;21.20;82.80;;;;;;4970897;28;20512;-68
2022/07/08 09:24:48;;;;;;;15.57;8.17;;;20.90;80.90;;;;;;4963852;28;20226;-69
2022/07/08 09:27:14;;;;;;;17.03;5.23;;;21.30;83.60;;;;;;4950908;28;20430;-69
2022/07/08 09:29:56;;;;;;;34.23;5.27;;;21.40;80.50;;;;;;4950151;28;20175;-67
2022/07/08 09:32:21;;;;;;;6.23;2.70;;;21.70;80.40;;;;;;4966466;28;20413;-68
2022/07/08 09:34:47;;;;;;;6.17;2.90;;;21.70;76.90;;;;;;4970396;28;20424;-66
2022/07/08 09:37:18;;;;;;;11.03;3.40;;;21.90;77.50;;;;;;4984790;23;20519;-70
2022/07/08 09:39:44;;;;;;;10.97;3.50;;;22.00;77.00;;;;;;4969420;28;20178;-70
2022/07/08 09:42:13;;;;;;;4.83;2.67;;;21.90;75.90;;;;;;4967573;28;20480;-70
2022/07/08 09:44:39;;;;;;;6.67;2.57;;;21.70;73.50;;;;;;4969066;28;20401;-68
2022/07/08 09:47:12;;;;;;;4.97;2.60;;;21.20;71.50;;;;;;4967986;28;20428;-69
2022/07/08 09:49:44;;;;;;;9.90;2.60;;;21.10;72.00;;;;;;4968721;28;20400;-68
2022/07/08 09:52:11;;;;;;;12.63;3.73;;;20.90;68.20;;;;;;4970026;28;20408;-69
2022/07/08 09:54:37;;;;;;;5.50;2.77;;;21.10;69.80;;;;;;4969169;28;20488;-70
2022/07/08 09:57:04;;;;;;;4.70;2.43;;;21.40;69.50;;;;;;4967400;28;20761;-68
2022/07/08 09:59:30;;;;;;;11.20;3.70;;;21.00;65.40;;;;;;4982094;28;20423;-67
2022/07/08 10:01:57;;;;;;;9.87;3.80;;;20.80;63.80;;;;;;4988475;28;20448;-68
2022/07/08 10:04:26;;;;;;;6.73;3.30;;;20.80;63.40;;;;;;4986394;28;20420;-68
2022/07/08 10:06:54;;;;;;;9.70;3.60;;;20.60;61.90;;;;;;4987238;28;20408;-68
2022/07/08 10:09:21;;;;;;;12.03;3.80;;;20.50;61.50;;;;;;4988360;28;20408;-68
2022/07/08 10:11:48;;;;;;;9.47;2.50;;;21.00;65.00;;;;;;4987729;28;20417;-68
2022/07/08 10:14:14;;;;;;;11.10;4.60;;;21.10;62.10;;;;;;4989231;28;20415;-68
2022/07/08 10:16:42;;;;;;;7.10;3.00;;;21.40;66.60;;;;;;4992520;28;20435;-67
2022/07/08 10:19:13;;;;;;;12.40;3.93;;;22.00;63.90;;;;;;4991218;28;20566;-69
2022/07/08 10:21:41;;;;;;;38.73;6.40;;;22.50;62.90;;;;;;4992317;28;20539;-69
2022/07/08 10:24:11;;;;;;;32.90;6.03;;;22.70;60.80;;;;;;4991513;28;20412;-69
2022/07/08 10:26:40;;;;;;;7.90;2.13;;;22.60;58.20;;;;;;4973170;28;20408;-69
2022/07/08 10:29:08;;;;;;;8.97;2.60;;;21.80;54.10;;;;;;4971354;28;20516;-68
2022/07/08 10:31:44;;;;;;;3.80;2.30;;;21.30;53.10;;;;;;4972860;28;20535;-68
2022/07/08 10:34:12;;;;;;;2.90;2.10;;;21.30;52.40;;;;;;4971110;28;20520;-69
2022/07/08 10:36:49;;;;;;;12.97;2.90;;;20.40;48.80;;;;;;4972694;28;20487;-68
2022/07/08 10:39:25;;;;;;;7.20;2.40;;;20.70;51.00;;;;;;4971783;28;20432;-68
2022/07/08 10:42:04;;;;;;;4.03;2.00;;;21.60;53.10;;;;;;4971904;28;20444;-68
2022/07/08 10:44:45;;;;;;;11.03;2.97;;;21.50;50.90;;;;;;4972096;28;20921;-68
2022/07/08 10:47:12;;;;;;;6.47;3.03;;;21.70;52.60;;;;;;4971068;28;20439;-68
2022/07/08 10:49:42;;;;;;;5.63;2.63;;;21.90;53.40;;;;;;4971835;28;20488;-68
2022/07/08 10:52:08;;;;;;;9.40;2.83;;;21.60;51.20;;;;;;4972528;28;20917;-68
2022/07/08 10:54:37;;;;;;;32.50;5.10;;;21.20;49.70;;;;;;4973936;28;20420;-68
2022/07/08 10:57:28;;;;;;;23.13;6.00;;;21.40;50.80;;;;;;4972198;28;20174;-69
2022/07/08 11:00:07;;;;;;;7.93;2.70;;;22.00;51.40;;;;;;4987216;28;20436;-68
2022/07/08 11:02:38;;;;;;;11.20;3.20;;;22.30;49.10;;;;;;4991826;28;20558;-68
2022/07/08 11:05:04;;;;;;;14.30;5.57;;;22.60;49.50;;;;;;4992027;28;20404;-67
2022/07/08 11:07:30;;;;;;;11.17;5.53;;;23.00;49.50;;;;;;4993298;28;20510;-67
2022/07/08 11:10:12;;;;;;;11.40;3.83;;;23.10;48.50;;;;;;4975308;28;20426;-72
2022/07/08 11:12:46;;;;;;;4.97;2.17;;;23.20;48.70;;;;;;4955393;28;20245;-71
2022/07/08 11:15:13;;;;;;;12.83;2.53;;;21.70;42.70;;;;;;4964208;28;20720;-70
2022/07/08 11:17:40;;;;;;;11.23;3.03;;;21.70;43.20;;;;;;4977183;28;20443;-71
2022/07/08 11:20:20;;;;;;;13.27;4.80;;;21.80;43.30;;;;;;4986825;28;20421;-71
2022/07/08 11:22:47;;;;;;;23.23;5.60;;;22.20;44.70;;;;;;4964240;28;20475;-71
2022/07/08 11:25:16;;;;;;;11.23;3.20;;;22.60;44.50;;;;;;4958756;28;20418;-71
2022/07/08 11:27:43;;;;;;;10.30;3.70;;;22.80;43.60;;;;;;4962311;28;20461;-71
2022/07/08 11:30:14;;;;;;;5.30;2.10;;;22.70;41.60;;;;;;4952622;28;20502;-72
2022/07/08 11:32:41;;;;;;;7.43;2.47;;;21.50;36.60;;;;;;4955279;28;20914;-72
2022/07/08 11:35:07;;;;;;;3.27;2.33;;;20.90;36.00;;;;;;4962950;28;20446;-73
2022/07/08 11:37:40;;;;;;;4.20;2.57;;;20.90;36.20;;;;;;4951943;28;20465;-69
2022/07/08 11:40:06;;;;;;;5.93;3.00;;;21.40;38.30;;;;;;4965922;28;20768;-70
2022/07/08 11:42:36;;;;;;;11.77;3.17;;;21.40;38.00;;;;;;4971137;28;20492;-72
2022/07/08 11:45:10;;;;;;;8.50;3.23;;;21.50;37.30;;;;;;4971679;28;20397;-72
2022/07/08 11:47:36;;;;;;;4.70;2.27;;;21.90;37.60;;;;;;4972319;28;20548;-71
2022/07/08 11:50:03;;;;;;;4.20;2.40;;;22.20;49.80;;;;;;4960707;28;20472;-71
2022/07/08 11:52:29;;;;;;;6.27;2.10;;;21.50;34.60;;;;;;4955412;28;20510;-71
2022/07/08 11:54:59;;;;;;;4.57;2.50;;;21.40;34.70;;;;;;4957314;28;20735;-73
2022/07/08 11:57:25;;;;;;;12.03;3.63;;;21.60;35.40;;;;;;4961101;28;20496;-72
2022/07/08 11:59:51;;;;;;;7.10;2.67;;;21.90;36.40;;;;;;4966078;28;20511;-72
2022/07/08 12:02:20;;;;;;;6.77;3.00;;;22.20;36.30;;;;;;4953955;28;20544;-72
2022/07/08 12:04:47;;;;;;;27.83;3.83;;;22.30;36.70;;;;;;4972875;28;20178;-72
2022/07/08 12:07:27;;;;;;;7.60;3.80;;;22.00;36.40;;;;;;4956909;28;20814;-72
2022/07/08 12:10:03;;;;;;;15.73;3.70;;;22.10;36.20;;;;;;4965904;28;20522;-72
2022/07/08 12:12:33;;;;;;;12.90;3.80;;;22.20;36.60;;;;;;4951040;28;20417;-72
2022/07/08 12:15:14;;;;;;;6.70;3.07;;;22.30;37.00;;;;;;4969701;28;20402;-73
2022/07/08 12:17:40;;;;;;;12.20;3.00;;;21.90;34.90;;;;;;4964621;28;20602;-72
2022/07/08 12:20:06;;;;;;;5.47;2.80;;;22.00;35.90;;;;;;4955514;28;20940;-71
2022/07/08 12:22:47;;;;;;;4.13;2.50;;;21.90;34.60;;;;;;4958771;28;20198;-72
2022/07/08 12:25:15;;;;;;;8.90;2.60;;;21.80;34.30;;;;;;4967827;28;20873;-72
2022/07/08 12:27:42;;;;;;;20.70;4.47;;;21.90;34.10;;;;;;4972040;28;20453;-72
2022/07/08 12:30:09;;;;;;;26.80;6.13;;;22.00;34.00;;;;;;4971293;28;20429;-72
2022/07/08 12:32:41;;;;;;;10.17;2.97;;;22.30;33.90;;;;;;4971491;28;20530;-72
2022/07/08 12:35:09;;;;;;;7.93;3.30;;;22.60;34.10;;;;;;4962421;28;20425;-72
2022/07/08 12:37:35;;;;;;;8.70;2.73;;;22.80;34.40;;;;;;4958364;28;20461;-72
2022/07/08 12:40:18;;;;;;;26.77;3.80;;;23.00;34.00;;;;;;4958591;28;20449;-70
2022/07/08 12:43:03;;;;;;;4.60;2.30;;;22.60;31.20;;;;;;4963705;28;20972;-71